createdAt,value
2018-05-31T00:02:30.379Z,12.80
2018-05-31T00:05:06.049Z,11.90
2018-05-31T00:07:40.780Z,13.47
2018-05-31T00:10:15.735Z,11.93
2018-05-31T00:12:50.364Z,13.20
2018-05-31T00:15:25.337Z,13.20
2018-05-31T00:18:00.350Z,13.43
2018-05-31T00:20:35.966Z,12.37
2018-05-31T00:23:11.043Z,12.43
2018-05-31T00:25:46.605Z,12.33
2018-05-31T00:28:21.357Z,11.50
2018-05-31T00:30:56.365Z,12.63
2018-05-31T00:33:30.992Z,12.53
2018-05-31T00:36:05.898Z,11.80
2018-05-31T00:38:40.565Z,13.10
2018-05-31T00:41:15.441Z,14.03
2018-05-31T00:43:50.556Z,14.37
2018-05-31T00:46:26.347Z,13.13
2018-05-31T00:49:00.902Z,12.23
2018-05-31T00:51:35.553Z,12.10
2018-05-31T00:54:10.635Z,13.07
2018-05-31T00:56:45.466Z,14.53
2018-05-31T00:59:20.357Z,15.10
2018-05-31T01:01:55.286Z,13.60
2018-05-31T01:04:30.346Z,15.17
2018-05-31T01:07:04.781Z,13.80
2018-05-31T01:09:40.324Z,13.73
2018-05-31T01:12:15.509Z,13.50
2018-05-31T01:14:50.376Z,13.20
2018-05-31T01:17:24.091Z,14.03
2018-05-31T01:19:59.044Z,13.00
2018-05-31T01:22:33.988Z,13.53
2018-05-31T01:25:08.853Z,13.30
2018-05-31T01:27:43.462Z,15.33
2018-05-31T01:30:18.102Z,15.00
2018-05-31T01:32:52.794Z,14.47
2018-05-31T01:35:27.613Z,14.03
2018-05-31T01:38:13.931Z,13.63
2018-05-31T01:40:48.657Z,15.17
2018-05-31T01:43:23.719Z,15.60
2018-05-31T01:45:58.801Z,16.10
2018-05-31T01:48:34.621Z,16.37
2018-05-31T01:51:09.215Z,18.10
2018-05-31T01:53:44.276Z,19.60
2018-05-31T01:56:18.882Z,17.80
2018-05-31T01:58:53.475Z,16.00
2018-05-31T02:01:29.476Z,15.80
2018-05-31T02:04:04.185Z,15.43
2018-05-31T02:06:38.840Z,15.90
2018-05-31T02:09:13.795Z,14.23
2018-05-31T02:11:48.753Z,15.20
2018-05-31T02:14:23.529Z,14.60
2018-05-31T02:16:58.260Z,17.40
2018-05-31T02:19:32.981Z,15.57
2018-05-31T02:22:08.007Z,16.80
2018-05-31T02:24:43.059Z,16.27
2018-05-31T02:27:18.791Z,16.80
2018-05-31T02:29:53.519Z,17.70
2018-05-31T02:32:28.648Z,17.87
2018-05-31T02:35:03.119Z,16.67
2018-05-31T02:37:38.786Z,16.67
2018-05-31T02:40:13.591Z,17.27
2018-05-31T02:42:48.540Z,17.30
2018-05-31T02:45:23.466Z,18.10
2018-05-31T02:47:58.011Z,16.70
2018-05-31T02:50:32.597Z,16.53
2018-05-31T02:53:08.449Z,16.10
2018-05-31T02:55:43.298Z,15.53
2018-05-31T02:58:18.732Z,15.90
2018-05-31T03:00:53.473Z,15.83
2018-05-31T03:03:28.522Z,17.40
2018-05-31T03:06:03.910Z,18.10
2018-05-31T03:08:38.742Z,18.80
2018-05-31T03:11:14.426Z,18.70
2018-05-31T03:13:49.376Z,18.53
2018-05-31T03:16:24.433Z,19.80
2018-05-31T03:18:59.331Z,18.20
2018-05-31T03:21:33.923Z,20.40
2018-05-31T03:24:08.881Z,19.10
2018-05-31T03:26:44.539Z,22.20
2018-05-31T03:29:20.116Z,22.53
2018-05-31T03:31:55.207Z,22.10
2018-05-31T03:34:30.290Z,19.30
2018-05-31T03:37:05.370Z,19.60
2018-05-31T03:39:41.550Z,18.43
2018-05-31T03:42:17.418Z,18.00
2018-05-31T03:44:52.238Z,16.70
2018-05-31T03:47:27.690Z,16.93
2018-05-31T03:50:02.720Z,14.13
2018-05-31T03:52:40.409Z,15.07
2018-05-31T03:55:16.145Z,14.10
2018-05-31T03:57:50.892Z,12.77
2018-05-31T04:00:25.940Z,13.90
2018-05-31T04:03:00.670Z,12.40
2018-05-31T04:05:35.369Z,11.20
2018-05-31T04:08:10.177Z,10.90
2018-05-31T04:10:45.901Z,9.60
2018-05-31T04:13:21.394Z,10.67
2018-05-31T04:15:55.897Z,10.17
2018-05-31T04:18:30.815Z,10.40
2018-05-31T04:21:05.568Z,9.40
2018-05-31T04:23:40.421Z,10.17
2018-05-31T04:26:16.046Z,9.03
2018-05-31T04:28:51.102Z,9.13
2018-05-31T04:31:26.112Z,8.30
2018-05-31T04:34:01.511Z,8.90
2018-05-31T04:36:36.295Z,8.50
2018-05-31T04:39:11.229Z,8.00
2018-05-31T04:41:46.159Z,8.13
2018-05-31T04:44:21.103Z,8.60
2018-05-31T04:46:50.595Z,8.63
2018-05-31T04:49:25.422Z,7.87
2018-05-31T04:52:00.252Z,8.67
2018-05-31T04:54:34.915Z,8.33
2018-05-31T04:57:10.272Z,7.57
2018-05-31T04:59:45.179Z,7.77
2018-05-31T05:02:19.941Z,6.80
2018-05-31T05:04:54.649Z,7.77
2018-05-31T05:07:29.548Z,7.83
2018-05-31T05:10:04.489Z,7.40
2018-05-31T05:12:44.089Z,6.97
2018-05-31T05:15:18.760Z,6.80
2018-05-31T05:17:53.557Z,6.90
2018-05-31T05:20:28.538Z,6.80
2018-05-31T05:23:03.772Z,6.80
2018-05-31T05:25:38.498Z,6.10
2018-05-31T05:28:13.506Z,6.50
2018-05-31T05:30:48.436Z,6.33
2018-05-31T05:33:23.341Z,6.23
2018-05-31T05:35:58.299Z,5.93
2018-05-31T05:38:34.032Z,5.77
2018-05-31T05:41:08.598Z,4.90
2018-05-31T05:43:43.179Z,5.63
2018-05-31T05:46:17.931Z,5.97
2018-05-31T05:48:52.867Z,5.23
2018-05-31T05:51:27.592Z,5.37
2018-05-31T05:54:02.414Z,4.60
2018-05-31T05:56:37.370Z,4.73
2018-05-31T05:59:11.932Z,4.70
2018-05-31T06:01:46.905Z,4.67
2018-05-31T06:04:21.830Z,4.40
2018-05-31T06:06:56.997Z,4.50
2018-05-31T06:09:32.567Z,4.97
2018-05-31T06:12:08.204Z,5.00
2018-05-31T06:14:43.189Z,4.30
2018-05-31T06:17:19.152Z,4.43
2018-05-31T06:19:54.074Z,4.67
2018-05-31T06:22:29.440Z,4.97
2018-05-31T06:25:01.049Z,5.03
2018-05-31T06:27:36.085Z,5.33
2018-05-31T06:30:10.671Z,4.63
2018-05-31T06:32:45.625Z,4.73
2018-05-31T06:35:20.930Z,4.50
2018-05-31T06:37:50.036Z,4.00
2018-05-31T06:40:24.659Z,4.00
2018-05-31T06:42:59.318Z,3.87
2018-05-31T06:45:34.917Z,3.40
2018-05-31T06:48:09.426Z,3.20
2018-05-31T06:50:44.141Z,3.47
2018-05-31T06:53:18.782Z,3.33
2018-05-31T06:55:53.473Z,3.73
2018-05-31T06:58:28.165Z,3.60
2018-05-31T07:01:03.735Z,3.90
2018-05-31T07:03:38.432Z,3.43
2018-05-31T07:06:13.196Z,3.93
2018-05-31T07:08:47.964Z,4.47
2018-05-31T07:11:22.756Z,4.03
2018-05-31T07:13:58.282Z,3.67
2018-05-31T07:16:32.915Z,3.73
2018-05-31T07:19:07.499Z,3.97
2018-05-31T07:21:43.098Z,4.07
2018-05-31T07:24:17.863Z,4.03
2018-05-31T07:26:52.543Z,3.93
2018-05-31T07:29:27.351Z,3.37
2018-05-31T07:32:01.903Z,3.37
2018-05-31T07:34:36.476Z,3.13
2018-05-31T07:37:11.130Z,3.80
2018-05-31T07:39:45.764Z,3.47
2018-05-31T07:42:20.387Z,3.17
2018-05-31T07:44:55.074Z,3.40
2018-05-31T07:47:29.858Z,3.70
2018-05-31T07:50:04.265Z,3.67
2018-05-31T07:52:38.862Z,3.73
2018-05-31T07:55:13.227Z,4.10
2018-05-31T07:57:47.728Z,3.63
2018-05-31T08:00:22.839Z,4.40
2018-05-31T08:02:57.637Z,4.97
2018-05-31T08:05:33.461Z,4.17
2018-05-31T08:08:17.959Z,3.53
2018-05-31T08:10:52.782Z,4.50
2018-05-31T08:13:28.515Z,4.17
2018-05-31T08:16:03.216Z,4.00
2018-05-31T08:18:48.372Z,4.47
2018-05-31T08:21:24.139Z,4.23
2018-05-31T08:23:58.936Z,4.07
2018-05-31T08:26:33.963Z,3.83
2018-05-31T08:29:08.608Z,4.30
2018-05-31T08:31:43.841Z,4.50
2018-05-31T08:34:20.388Z,4.47
2018-05-31T08:36:59.461Z,4.30
2018-05-31T08:39:35.314Z,4.57
2018-05-31T08:42:10.813Z,4.67
2018-05-31T08:44:45.529Z,4.23
2018-05-31T08:47:20.275Z,4.57
2018-05-31T08:49:54.914Z,4.50
2018-05-31T08:52:29.485Z,4.63
2018-05-31T08:55:04.151Z,4.17
2018-05-31T08:57:39.472Z,3.57
2018-05-31T09:00:14.172Z,4.37
2018-05-31T09:02:48.823Z,4.17
2018-05-31T09:05:24.451Z,4.20
2018-05-31T09:07:59.193Z,4.30
2018-05-31T09:10:33.753Z,4.13
2018-05-31T09:13:08.394Z,4.87
2018-05-31T09:15:42.974Z,3.77
2018-05-31T09:18:18.419Z,3.93
2018-05-31T09:20:53.766Z,4.63
2018-05-31T09:23:28.499Z,4.63
2018-05-31T09:26:03.822Z,4.27
2018-05-31T09:28:38.574Z,4.27
2018-05-31T09:31:13.487Z,4.17
2018-05-31T09:33:48.126Z,4.17
2018-05-31T09:36:22.820Z,4.53
2018-05-31T09:38:57.764Z,4.03
2018-05-31T09:41:32.545Z,3.87
2018-05-31T09:44:07.119Z,3.80
2018-05-31T09:46:42.147Z,4.30
2018-05-31T09:49:16.782Z,4.80
2018-05-31T09:51:51.439Z,4.07
2018-05-31T09:54:26.277Z,3.90
2018-05-31T09:57:00.975Z,3.83
2018-05-31T09:59:35.542Z,4.10
2018-05-31T10:02:10.252Z,3.80
2018-05-31T10:04:44.909Z,3.80
2018-05-31T10:07:20.283Z,3.50
2018-05-31T10:09:55.076Z,3.50
2018-05-31T10:12:29.774Z,3.93
2018-05-31T10:15:03.907Z,3.73
2018-05-31T10:17:38.695Z,3.70
2018-05-31T10:20:13.305Z,4.13
2018-05-31T10:22:47.869Z,4.23
2018-05-31T10:25:22.446Z,4.07
2018-05-31T10:27:57.131Z,3.60
2018-05-31T10:30:31.764Z,4.30
2018-05-31T10:33:06.392Z,3.93
2018-05-31T10:35:42.008Z,3.50
2018-05-31T10:38:16.653Z,3.93
2018-05-31T10:40:51.499Z,4.03
2018-05-31T10:43:26.065Z,3.80
2018-05-31T10:46:00.803Z,4.30
2018-05-31T10:48:35.368Z,3.43
2018-05-31T10:51:10.754Z,4.10
2018-05-31T10:53:46.319Z,4.00
2018-05-31T10:56:21.280Z,4.47
2018-05-31T10:58:56.018Z,4.17
2018-05-31T11:01:30.715Z,4.00
2018-05-31T11:04:05.428Z,4.03
2018-05-31T11:06:40.697Z,3.97
2018-05-31T11:09:15.573Z,3.80
2018-05-31T11:11:50.236Z,4.37
2018-05-31T11:14:24.920Z,3.80
2018-05-31T11:16:59.523Z,4.60
2018-05-31T11:19:34.153Z,4.67
2018-05-31T11:22:09.652Z,4.77
2018-05-31T11:24:45.058Z,4.63
2018-05-31T11:27:19.599Z,4.03
2018-05-31T11:29:54.938Z,4.10
2018-05-31T11:32:29.486Z,4.77
2018-05-31T11:35:03.780Z,4.70
2018-05-31T11:37:38.399Z,4.17
2018-05-31T11:40:13.168Z,4.60
2018-05-31T11:42:48.503Z,4.50
2018-05-31T11:45:23.232Z,5.00
2018-05-31T11:47:57.990Z,4.63
2018-05-31T11:50:32.979Z,4.87
2018-05-31T11:53:08.388Z,4.77
2018-05-31T11:55:43.344Z,4.40
2018-05-31T11:58:18.104Z,5.53
2018-05-31T12:00:52.742Z,5.10
2018-05-31T12:03:28.481Z,5.70
2018-05-31T12:06:03.152Z,6.70
2018-05-31T12:08:37.781Z,5.50
2018-05-31T12:11:13.188Z,6.30
2018-05-31T12:13:47.921Z,5.67
2018-05-31T12:16:22.542Z,6.43
2018-05-31T12:18:57.308Z,5.67
2018-05-31T12:21:32.107Z,5.63
2018-05-31T12:24:06.947Z,5.80
2018-05-31T12:26:41.867Z,6.00
2018-05-31T12:29:17.259Z,5.40
2018-05-31T12:31:52.368Z,5.33
2018-05-31T12:34:27.013Z,6.17
2018-05-31T12:37:01.632Z,6.43
2018-05-31T12:39:36.341Z,6.70
2018-05-31T12:42:11.173Z,6.30
2018-05-31T12:44:45.969Z,5.63
2018-05-31T12:47:20.699Z,7.07
2018-05-31T12:49:55.248Z,7.63
2018-05-31T12:52:30.166Z,7.23
2018-05-31T12:55:04.252Z,8.03
2018-05-31T12:57:38.816Z,7.40
2018-05-31T13:00:13.651Z,7.50
2018-05-31T13:02:48.288Z,8.10
2018-05-31T13:05:23.224Z,7.73
2018-05-31T13:07:57.860Z,9.60
2018-05-31T13:10:32.669Z,9.60
2018-05-31T13:13:07.443Z,9.57
2018-05-31T13:15:42.349Z,10.63
2018-05-31T13:18:17.794Z,11.50
2018-05-31T13:20:52.427Z,9.00
2018-05-31T13:23:27.075Z,8.17
2018-05-31T13:26:01.718Z,9.63
2018-05-31T13:28:37.192Z,8.40
2018-05-31T13:31:11.796Z,8.57
2018-05-31T13:33:46.568Z,8.60
2018-05-31T13:36:22.168Z,8.83
2018-05-31T13:38:57.031Z,8.90
2018-05-31T13:41:26.207Z,9.77
2018-05-31T13:43:55.737Z,9.70
2018-05-31T13:46:25.779Z,9.33
2018-05-31T13:49:04.458Z,9.80
2018-05-31T13:51:43.676Z,9.13
2018-05-31T13:57:25.518Z,9.30
2018-05-31T14:00:15.335Z,10.73
2018-05-31T14:02:57.536Z,9.73
2018-05-31T14:05:41.615Z,11.10
2018-05-31T14:08:18.713Z,11.03
2018-05-31T14:10:59.204Z,9.77
2018-05-31T14:13:35.381Z,10.50
2018-05-31T14:16:11.814Z,10.10
2018-05-31T14:18:46.911Z,10.40
2018-05-31T14:21:24.372Z,10.03
2018-05-31T14:23:59.893Z,10.63
2018-05-31T14:26:35.041Z,10.30
2018-05-31T14:29:12.107Z,10.50
2018-05-31T14:31:47.060Z,9.30
2018-05-31T14:34:22.321Z,9.90
2018-05-31T14:36:58.194Z,10.67
2018-05-31T14:39:34.394Z,10.70
2018-05-31T14:45:26.810Z,11.43
2018-05-31T14:48:06.074Z,11.27
2018-05-31T14:50:41.231Z,10.70
2018-05-31T14:53:17.810Z,8.50
2018-05-31T14:55:55.592Z,8.50
2018-05-31T14:58:49.658Z,10.17
2018-05-31T15:01:24.824Z,7.73
2018-05-31T15:04:00.368Z,8.60
2018-05-31T15:06:35.505Z,9.10
2018-05-31T15:09:10.131Z,7.57
2018-05-31T15:11:46.285Z,7.70
2018-05-31T15:14:21.972Z,8.10
2018-05-31T15:16:57.718Z,8.20
2018-05-31T15:19:33.225Z,7.85
2018-05-31T15:22:09.924Z,7.55
2018-05-31T15:24:45.275Z,7.85
2018-05-31T15:27:20.766Z,7.65
2018-05-31T15:29:56.359Z,7.77
2018-05-31T15:32:44.196Z,7.25
2018-05-31T15:35:26.551Z,7.57
2018-05-31T15:38:04.631Z,8.00
2018-05-31T15:40:40.851Z,7.93
2018-05-31T15:43:17.532Z,7.93
2018-05-31T15:45:53.609Z,7.65
2018-05-31T15:48:28.382Z,7.53
2018-05-31T15:51:03.512Z,8.10
2018-05-31T15:53:45.571Z,8.98
2018-05-31T15:56:21.573Z,8.63
2018-05-31T15:58:56.933Z,7.87
2018-05-31T16:01:31.771Z,8.67
2018-05-31T16:04:06.108Z,7.60
2018-05-31T16:06:40.923Z,7.47
2018-05-31T16:09:10.696Z,7.50
2018-05-31T16:11:46.055Z,6.93
2018-05-31T16:14:21.508Z,6.37
2018-05-31T16:16:56.828Z,5.75
2018-05-31T16:19:33.115Z,5.50
2018-05-31T16:22:07.654Z,5.90
2018-05-31T16:24:42.345Z,5.30
2018-05-31T16:27:17.561Z,5.45
2018-05-31T16:29:52.211Z,6.20
2018-05-31T16:32:27.650Z,5.80
2018-05-31T16:35:03.289Z,6.37
2018-05-31T16:37:39.665Z,7.00
2018-05-31T16:40:14.943Z,7.22
2018-05-31T16:42:50.132Z,8.45
2018-05-31T16:45:25.451Z,9.60
2018-05-31T16:48:01.578Z,11.05
2018-05-31T16:50:37.267Z,10.00
2018-05-31T16:53:13.371Z,9.90
2018-05-31T16:55:48.807Z,10.65
2018-05-31T16:58:24.094Z,11.07
2018-05-31T17:00:58.772Z,9.90
2018-05-31T17:03:33.405Z,11.13
2018-05-31T17:06:08.739Z,9.00
2018-05-31T17:08:44.166Z,9.55
2018-05-31T17:11:18.946Z,8.50
2018-05-31T17:13:53.576Z,8.80
2018-05-31T17:16:28.310Z,8.50
2018-05-31T17:19:03.163Z,8.60
2018-05-31T17:21:37.794Z,8.77
2018-05-31T17:24:12.343Z,7.50
2018-05-31T17:26:46.914Z,8.10
2018-05-31T17:29:21.480Z,7.83
2018-05-31T17:31:56.847Z,7.77
2018-05-31T17:34:31.830Z,6.83
2018-05-31T17:37:07.646Z,7.53
2018-05-31T17:39:42.548Z,7.50
2018-05-31T17:42:18.018Z,7.30
2018-05-31T17:44:53.053Z,7.57
2018-05-31T17:47:28.493Z,7.43
2018-05-31T17:50:03.187Z,7.57
2018-05-31T17:52:37.869Z,8.17
2018-05-31T17:55:12.629Z,8.60
2018-05-31T17:57:47.644Z,10.23
2018-05-31T18:00:22.602Z,10.20
2018-05-31T18:02:57.340Z,13.30
2018-05-31T18:05:32.294Z,12.97
2018-05-31T18:08:07.469Z,13.30
2018-05-31T18:10:43.464Z,14.00
2018-05-31T18:13:18.484Z,13.00
2018-05-31T18:15:53.258Z,12.83
2018-05-31T18:18:29.860Z,13.73
2018-05-31T18:21:04.722Z,15.23
2018-05-31T18:23:39.318Z,14.43
2018-05-31T18:26:14.074Z,13.63
2018-05-31T18:28:49.036Z,14.83
2018-05-31T18:31:23.693Z,14.13
2018-05-31T18:33:52.926Z,15.07
2018-05-31T18:36:27.715Z,16.50
2018-05-31T18:39:02.468Z,15.23
2018-05-31T18:41:37.876Z,15.70
2018-05-31T18:44:14.457Z,16.37
2018-05-31T18:46:49.525Z,15.53
2018-05-31T18:49:25.170Z,16.23
2018-05-31T18:52:00.446Z,16.93
2018-05-31T18:54:35.848Z,16.37
2018-05-31T18:57:10.911Z,16.30
2018-05-31T18:59:45.763Z,17.20
2018-05-31T19:02:21.569Z,16.23
2018-05-31T19:04:56.197Z,16.63
2018-05-31T19:07:31.894Z,15.00
2018-05-31T19:10:07.260Z,16.33
2018-05-31T19:12:47.431Z,16.27
2018-05-31T19:15:22.183Z,15.00
2018-05-31T19:17:57.016Z,14.90
2018-05-31T19:20:32.205Z,16.50
2018-05-31T19:23:07.136Z,15.27
2018-05-31T19:25:41.934Z,15.70
2018-05-31T19:28:18.327Z,16.43
2018-05-31T19:30:59.525Z,17.20
2018-05-31T19:33:35.522Z,16.87
2018-05-31T19:36:16.551Z,17.67
2018-05-31T19:38:51.590Z,20.40
2018-05-31T19:41:28.275Z,18.50
2018-05-31T19:44:08.147Z,19.20
2018-05-31T19:46:37.247Z,17.40
2018-05-31T19:49:12.025Z,20.20
2018-05-31T19:51:52.448Z,19.00
2018-05-31T19:54:28.180Z,18.90
2018-05-31T19:57:02.991Z,19.80
2018-05-31T19:59:43.903Z,16.53
2018-05-31T20:02:24.202Z,17.67
2018-05-31T20:04:58.949Z,18.50
2018-05-31T20:07:33.681Z,21.60
2018-05-31T20:10:09.375Z,19.60
2018-05-31T20:12:44.923Z,20.73
2018-05-31T20:15:19.632Z,19.70
2018-05-31T20:17:55.092Z,22.27
2018-05-31T20:20:29.803Z,21.80
2018-05-31T20:23:04.121Z,20.23
2018-05-31T20:25:38.936Z,19.97
2018-05-31T20:28:13.571Z,19.60
2018-05-31T20:30:48.973Z,19.40
2018-05-31T20:33:23.934Z,19.80
2018-05-31T20:35:58.614Z,19.00
2018-05-31T20:38:34.124Z,19.00
2018-05-31T20:41:08.753Z,19.60
2018-05-31T20:43:43.396Z,21.97
2018-05-31T20:46:17.997Z,20.90
2018-05-31T20:48:52.714Z,21.23
2018-05-31T20:51:27.375Z,20.77
2018-05-31T20:54:01.943Z,20.80
2018-05-31T20:56:36.716Z,23.27
2018-05-31T20:59:11.450Z,21.27
2018-05-31T21:01:46.037Z,21.30
2018-05-31T21:04:21.394Z,22.63
2018-05-31T21:07:01.224Z,21.63
2018-05-31T21:09:35.991Z,23.30
2018-05-31T21:12:11.374Z,24.67
2018-05-31T21:14:46.101Z,24.60
2018-05-31T21:17:20.896Z,26.70
2018-05-31T21:19:55.602Z,26.60
2018-05-31T21:22:30.394Z,27.23
2018-05-31T21:25:04.853Z,27.33
2018-05-31T21:27:39.607Z,25.53
2018-05-31T21:30:14.488Z,26.93
2018-05-31T21:32:43.820Z,26.27
2018-05-31T21:35:18.573Z,25.20
2018-05-31T21:37:53.542Z,29.00
2018-05-31T21:40:28.206Z,27.40
2018-05-31T21:43:03.091Z,27.67
2018-05-31T21:45:37.849Z,30.10
2018-05-31T21:48:12.634Z,30.93
2018-05-31T21:50:47.409Z,31.73
2018-05-31T21:53:22.305Z,31.00
2018-05-31T21:55:57.920Z,29.37
2018-05-31T21:58:32.733Z,29.53
2018-05-31T22:01:08.259Z,29.77
2018-05-31T22:03:45.342Z,25.80
2018-05-31T22:06:20.780Z,26.03
2018-05-31T22:08:56.246Z,27.17
2018-05-31T22:11:30.850Z,27.97
2018-05-31T22:14:05.654Z,29.30
2018-05-31T22:16:40.491Z,28.23
2018-05-31T22:19:15.237Z,27.40
2018-05-31T22:21:50.885Z,28.73
2018-05-31T22:24:25.443Z,27.37
2018-05-31T22:27:00.438Z,26.60
2018-05-31T22:29:35.046Z,26.17
2018-05-31T22:32:10.691Z,24.97
2018-05-31T22:34:45.637Z,26.73
2018-05-31T22:37:20.246Z,25.30
2018-05-31T22:39:55.691Z,26.63
2018-05-31T22:42:30.745Z,26.70
2018-05-31T22:45:06.152Z,25.40
2018-05-31T22:47:40.942Z,26.53
2018-05-31T22:50:19.734Z,26.13
2018-05-31T22:52:54.254Z,26.77
2018-05-31T22:55:34.961Z,27.10
2018-05-31T22:58:09.525Z,27.03
2018-05-31T23:00:44.124Z,25.53
2018-05-31T23:03:19.827Z,25.93
2018-05-31T23:05:55.409Z,25.50
2018-05-31T23:08:36.484Z,27.23
2018-05-31T23:11:11.424Z,26.10
2018-05-31T23:13:46.049Z,25.20
2018-05-31T23:16:20.839Z,25.97
2018-05-31T23:18:55.560Z,26.27
2018-05-31T23:21:30.230Z,26.10
2018-05-31T23:24:04.583Z,26.03
2018-05-31T23:26:40.027Z,28.37
2018-05-31T23:29:14.755Z,28.17
2018-05-31T23:31:49.397Z,24.67
2018-05-31T23:34:24.177Z,24.20
2018-05-31T23:36:59.603Z,24.03
2018-05-31T23:39:34.322Z,26.40
2018-05-31T23:42:09.055Z,23.77
2018-05-31T23:44:44.064Z,23.13
2018-05-31T23:47:19.585Z,23.43
2018-05-31T23:49:54.370Z,22.93
2018-05-31T23:52:29.173Z,23.20
2018-05-31T23:55:03.823Z,23.50
2018-05-31T23:57:38.372Z,23.37
